Al Hamla — V7MX9 — position and weather

sailwx.info

Track history (hours):
 
Tides and Currents Weather Stations Pressure Air Temp Water Temp Dewpoint Dewpoint Depression Visibility Wind Speed Wind Dir Waves Ship Positions

Al Hamla

Last reported at 2015-Mar-08 23:27 UTC. Time now 2015-Mar-27 06:58 UTC.
Position N 30°45' E 032°20'.
Warning: this ship's position is 18 days out of date.

Length 350 m; draft 9.7 m.

Type: Tanker. MMSI: 538002922.

Date/timePositionNaut miles runAvg speedWind from/ knotsBaromVisibWave heightAir tempDewpointWater temp
2015-Mar-08 23:27N 30°45' E 032°20'11 9.8
2015-Mar-08 22:18N 30°56' E 032°19'810.1
2015-Mar-08 21:33N 31°03' E 032°19'9 8.4
2015-Mar-08 20:31N 31°12' E 032°20'7 6.8
2015-Mar-08 19:33N 31°18' E 032°22'7 7.1
2015-Mar-08 18:33N 31°25' E 032°21'52 4.2
2015-Mar-08 06:12N 31°51' E 031°28'1116.8
2015-Mar-08 05:33N 31°57' E 031°17'2217.1
2015-Mar-08 04:17N 32°02' E 030°52'  
2015-Mar-04 09:31N 36°48' E 001°25'2320.0
2015-Mar-04 08:23N 36°44' E 000°57'3417.3
2015-Mar-04 06:24N 36°38' E 000°15'3916.8
2015-Mar-04 04:05N 36°31' W 000°33'22816.8
2015-Mar-03 14:33N 35°59' W 005°12'8415.3
2015-Mar-03 09:04N 36°02' W 006°56'815.5
2015-Mar-03 08:33N 36°04' W 007°06'3316.6
2015-Mar-03 06:33N 36°11' W 007°45'1716.8
2015-Mar-03 05:33N 36°15' W 008°06'1716.7
2015-Mar-03 04:34N 36°19' W 008°26'1716.6
2015-Mar-03 03:33N 36°23' W 008°46'1716.7
2015-Mar-03 02:32N 36°27' W 009°06'1616.1
2015-Mar-03 01:34N 36°33' W 009°24'1716.7
2015-Mar-03 00:33N 36°45' W 009°39'1716.7
2015-Mar-02 23:33N 37°01' W 009°43'1716.6
2015-Mar-02 22:33N 37°18' W 009°47'1716.7
2015-Mar-02 21:33N 37°34' W 009°52'2216.1
2015-Mar-02 20:10N 37°56' W 009°59'1016.3
2015-Mar-02 19:33N 38°06' W 010°01'1716.7
2015-Mar-02 18:33N 38°22' W 010°06'1717.0
2015-Mar-02 17:33N 38°38' W 010°11'1916.7
2015-Mar-02 16:26N 38°57' W 010°13'  
Track history (hours):
 
Tides and Currents Weather Stations Pressure Air Temp Water Temp Dewpoint Dewpoint Depression Visibility Wind Speed Wind Dir Waves Ship Positions

Al Hamla

Last reported at 2015-Mar-08 23:27 UTC. Time now 2015-Mar-27 06:58 UTC.
Position N 30°45' E 032°20'.
Warning: this ship's position is 18 days out of date.

Length 350 m; draft 9.7 m.

Type: Tanker. MMSI: 538002922.

Date/timePositionNaut miles runAvg speedWind from/ knotsBaromVisibWave heightAir tempDewpointWater temp
2015-Mar-08 23:27N 30°45' E 032°20'11 9.8
2015-Mar-08 22:18N 30°56' E 032°19'810.1
2015-Mar-08 21:33N 31°03' E 032°19'9 8.4
2015-Mar-08 20:31N 31°12' E 032°20'7 6.8
2015-Mar-08 19:33N 31°18' E 032°22'7 7.1
2015-Mar-08 18:33N 31°25' E 032°21'52 4.2
2015-Mar-08 06:12N 31°51' E 031°28'1116.8
2015-Mar-08 05:33N 31°57' E 031°17'2217.1
2015-Mar-08 04:17N 32°02' E 030°52'  
2015-Mar-04 09:31N 36°48' E 001°25'2320.0
2015-Mar-04 08:23N 36°44' E 000°57'3417.3
2015-Mar-04 06:24N 36°38' E 000°15'3916.8
2015-Mar-04 04:05N 36°31' W 000°33'22816.8
2015-Mar-03 14:33N 35°59' W 005°12'8415.3
2015-Mar-03 09:04N 36°02' W 006°56'815.5
2015-Mar-03 08:33N 36°04' W 007°06'3316.6
2015-Mar-03 06:33N 36°11' W 007°45'1716.8
2015-Mar-03 05:33N 36°15' W 008°06'1716.7
2015-Mar-03 04:34N 36°19' W 008°26'1716.6
2015-Mar-03 03:33N 36°23' W 008°46'1716.7
2015-Mar-03 02:32N 36°27' W 009°06'1616.1
2015-Mar-03 01:34N 36°33' W 009°24'1716.7
2015-Mar-03 00:33N 36°45' W 009°39'1716.7
2015-Mar-02 23:33N 37°01' W 009°43'1716.6
2015-Mar-02 22:33N 37°18' W 009°47'1716.7
2015-Mar-02 21:33N 37°34' W 009°52'2216.1
2015-Mar-02 20:10N 37°56' W 009°59'1016.3
2015-Mar-02 19:33N 38°06' W 010°01'1716.7
2015-Mar-02 18:33N 38°22' W 010°06'1717.0
2015-Mar-02 17:33N 38°38' W 010°11'1916.7
2015-Mar-02 16:26N 38°57' W 010°13'  

Dump ship's entire track history